Text Box: All records at near 07:00 local time
Kleivo 1 weather for Apr 2010
Month no. 41
Obs.
Da.
Temp. Dew Point Precip. Wind
Speed
Wind gusts Cloud cover Press. Humidity Wind dir. Sunny OPT
01.04.2010 6,9 -0,6 0,0 27,8 27,8 3 973,8 59,0 90,0 1 50,0 %
02.04.2010 2,9 1,3 0,5 16,7 16,7 3 981,3 89,0 135,0 1 55,0 %
03.04.2010 4,1 -0,9 4,6 26,2 26,2 2 990,7 70,0 157,5   42,5 %
04.04.2010 6,9 -2,3 0,0 5,6 5,6 2 990,7 52,0 180,0   62,5 %
05.04.2010 2,2 0,4 5,2 0,0 0,0 2 995,5 88,0 135,0   57,5 %
06.04.2010 6,5 2,9 1,0 14,8 14,8 1 998,2 78,0 157,5   52,5 %
07.04.2010 9,4 2,9 1,5 22,2 23,0 1 998,2 64,0 157,5   50,0 %
08.04.2010 5,1 3,4 1,5 0,0 0,0 3 1001,9 89,0 247,5 1 67,5 %
09.04.2010 5,6 4,1 3,5 5,6 5,6 1 1007,0 90,0 292,5   57,5 %
10.04.2010 -1,2 0,0 0,0 0,0 5,6 10 1016,8 90,0     77,5 %
11.04.2010 4,5 0,0 0,0 0,0 5,6 9 1019,2 84,0     80,0 %
12.04.2010 0,1 4,1 0,5 0,0 5,6 10 1015,8 88,0 337,5 1 80,0 %
13.04.2010 2,7 1,1 0,0 7,4 7,4 8 1007,7 89,0 22,5 1 72,5 %
14.04.2010 4,1 -1,5 1,0 3,7 3,7 10 1008,7 67,0 180,0 1 80,0 %
15.04.2010 4,4 2,6 3,1 0,0 0,0 3 1003,3 88,0 22,5 1 62,5 %
16.04.2010 2,4 0,4 3,6 1,9 1,9 3 1002,9 87,0 337,5 1 60,0 %
17.04.2010 6,1 4,6 1,3 6,1 6,1 0 990,1 90,0 337,5   57,5 %
18.04.2010 2,1 -0,2 0,1 0,0 0,0 7 988,0 85,0   1 72,5 %
19.04.2010 -0,8 -2,4 2,0 0,0 0,0 3 998,5 89,0 135,0 1 60,0 %
20.04.2010 2,3 -3,0 0,5 7,4 7,7 1 990,4 68,0 135,0   52,5 %
21.04.2010 12,3 0,4 0,0 3,2 4,8 5 1008,4 93,0 0,0 1 77,5 %
22.04.2010 3,4 2,4 0,0 0,0 3,2 8 1012,4 93,0 0,0 1 77,5 %
23.04.2010 2,1 0,3 0,0 11,3 12,9 4 1007,3 88,0 22,5 1 57,5 %
24.04.2010 3,5 -1,3 0,0 0,0 0,0 1 1001,2 71,0 337,5   60,0 %
25.04.2010 4,4 1,8 3,1 16,7 16,7 1 1005,3 83,0 112,5 1 47,5 %
26.04.2010 10,6 2,9 0,5 7,4 7,4 3 996,8 59,0 157,5 1 67,5 %
27.04.2010 7,1 5,6 7,1 0,0 0,0 10 998,9 90,0 292,5 1 80,0 %
28.04.2010 3,7 0,6 9,2 7,6 7,6 10 1002,6 80,0 135,0 1 70,0 %
29.04.2010 8,5 7,4 0,0 32,0 32,0 3 1002,6 93,0 180,0 1 50,0 %
30.04.2010 7,1 6,2 0,5 0,0 0,0 1 999,9 94,0 202,5 1 62,5 %
                       
Avrg/Sum 4,6 1,4 50,3 7,5 8,3 4,3 1000,5 81,6 166,7 19 63,3 %